Time;durP1;ratioP1;P1;durP2;ratioP2;P2;SDS_P1;SDS_P2;PMS_P1;PMS_P2;Temp;Humidity;BMP_temperature;BMP_pressure;BME280_temperature;BME280_humidity;BME280_pressure;Samples;Min_cycle;Max_cycle;Signal;HPM_P1;HPM_P2
2024/01/28 00:01:29;;;;;;;;;;;;;;;2.27;100.00;103255.44;5112952;28;20265;-71
2024/01/28 00:03:54;;;;;;;;;;;;;;;2.23;100.00;103261.38;5111918;28;20388;-71
2024/01/28 00:06:20;;;;;;;;;;;;;;;2.19;100.00;103259.50;5112949;28;19919;-71
2024/01/28 00:08:45;;;;;;;;;;;;;;;2.17;100.00;103256.00;5112851;28;19977;-71
2024/01/28 00:11:10;;;;;;;;;;;;;;;2.14;100.00;103258.47;5111569;28;20239;-71
2024/01/28 00:13:35;;;;;;;;;;;;;;;2.09;100.00;103251.47;5112772;28;19920;-71
2024/01/28 00:16:01;;;;;;;;;;;;;;;2.05;100.00;103256.47;5112312;28;19920;-71
2024/01/28 00:18:26;;;;;;;;;;;;;;;2.01;100.00;103247.72;5112186;28;19916;-71
2024/01/28 00:20:51;;;;;;;;;;;;;;;1.96;100.00;103246.69;5112532;28;19919;-71
2024/01/28 00:23:16;;;;;;;;;;;;;;;1.89;100.00;103243.03;5114229;28;20250;-71
2024/01/28 00:25:42;;;;;;;;;;;;;;;1.84;100.00;103241.13;5113346;28;19918;-71
2024/01/28 00:28:07;;;;;;;;;;;;;;;1.79;100.00;103233.19;5114031;28;20161;-71
2024/01/28 00:30:32;;;;;;;;;;;;;;;1.76;100.00;103227.06;5113367;28;20107;-71
2024/01/28 00:32:58;;;;;;;;;;;;;;;1.75;100.00;103225.28;5116948;28;20151;-71
2024/01/28 00:35:23;;;;;;;;;;;;;;;1.76;100.00;103227.06;5117908;28;19951;-71
2024/01/28 00:37:48;;;;;;;;;;;;;;;1.78;100.00;103220.22;5118204;28;19970;-71
2024/01/28 00:40:14;;;;;;;;;;;;;;;1.79;100.00;103216.84;5117233;28;19955;-71
2024/01/28 00:42:39;;;;;;;;;;;;;;;1.79;100.00;103211.66;5117707;28;19920;-71
2024/01/28 00:45:04;;;;;;;;;;;;;;;1.79;100.00;103204.78;5117386;28;20211;-71
2024/01/28 00:47:30;;;;;;;;;;;;;;;1.83;100.00;103204.03;5118336;28;19999;-71
2024/01/28 00:49:55;;;;;;;;;;;;;;;1.89;100.00;103208.53;5117313;28;20145;-71
2024/01/28 00:52:20;;;;;;;;;;;;;;;1.90;100.00;103203.44;5116138;28;19920;-71
2024/01/28 00:54:45;;;;;;;;;;;;;;;1.91;100.00;103201.72;5118678;28;19930;-71
2024/01/28 00:57:10;;;;;;;;;;;;;;;1.91;100.00;103207.78;5115941;28;19924;-71
2024/01/28 00:59:36;;;;;;;;;;;;;;;1.89;100.00;103213.72;5118424;28;19920;-71
2024/01/28 01:02:01;;;;;;;;;;;;;;;1.80;100.00;103214.31;5114463;28;20209;-71
2024/01/28 01:04:26;;;;;;;;;;;;;;;1.75;100.00;103208.09;5118125;28;19989;-71
2024/01/28 01:06:51;;;;;;;;;;;;;;;1.70;100.00;103207.94;5117426;28;19924;-71
2024/01/28 01:09:17;;;;;;;;;;;;;;;1.67;100.00;103212.09;5117564;28;19924;-71
2024/01/28 01:11:42;;;;;;;;;;;;;;;1.63;100.00;103208.53;5117601;28;19923;-71
2024/01/28 01:14:07;;;;;;;;;;;;;;;1.56;100.00;103196.25;5116829;28;19990;-71
2024/01/28 01:16:33;;;;;;;;;;;;;;;1.52;100.00;103189.22;5114059;28;19951;-71
2024/01/28 01:18:58;;;;;;;;;;;;;;;1.52;100.00;103182.34;5116246;28;19911;-71
2024/01/28 01:21:23;;;;;;;;;;;;;;;1.52;100.00;103169.44;5116164;28;19920;-71
2024/01/28 01:23:48;;;;;;;;;;;;;;;1.53;100.00;103168.63;5117664;28;20255;-71
2024/01/28 01:26:14;;;;;;;;;;;;;;;1.54;100.00;103165.19;5117253;28;19961;-71
2024/01/28 01:28:39;;;;;;;;;;;;;;;1.52;100.00;103159.09;5117107;28;19928;-71
2024/01/28 01:31:04;;;;;;;;;;;;;;;1.49;100.00;103147.78;5111439;28;19929;-71
2024/01/28 01:33:30;;;;;;;;;;;;;;;1.48;100.00;103143.47;5112097;28;19988;-71
2024/01/28 01:35:55;;;;;;;;;;;;;;;1.45;100.00;103136.47;5114999;28;19920;-71
2024/01/28 01:38:21;;;;;;;;;;;;;;;1.44;100.00;103142.47;5117283;28;19919;-71
2024/01/28 01:40:47;;;;;;;;;;;;;;;1.47;100.00;103139.97;5117114;28;19969;-71
2024/01/28 01:43:12;;;;;;;;;;;;;;;1.51;100.00;103148.72;5114654;28;20213;-71
2024/01/28 01:45:37;;;;;;;;;;;;;;;1.48;100.00;103140.88;5116765;28;19912;-71
2024/01/28 01:48:07;;;;;;;;;;;;;;;1.43;100.00;103143.28;5116162;28;19923;-71
2024/01/28 01:50:33;;;;;;;;;;;;;;;1.41;100.00;103138.91;5117097;28;19919;-71
2024/01/28 01:52:59;;;;;;;;;;;;;;;1.37;100.00;103139.66;5116561;28;19931;-71
2024/01/28 01:55:24;;;;;;;;;;;;;;;1.38;100.00;103138.81;5117211;28;19931;-71
2024/01/28 01:57:50;;;;;;;;;;;;;;;1.37;100.00;103143.09;5114250;28;19983;-71
2024/01/28 02:00:16;;;;;;;;;;;;;;;1.34;100.00;103140.41;5115827;28;19992;-71
2024/01/28 02:02:47;;;;;;;;;;;;;;;1.35;100.00;103142.16;5115638;28;19920;-71
2024/01/28 02:05:12;;;;;;;;;;;;;;;1.37;100.00;103129.31;5115394;28;19927;-73
2024/01/28 02:07:37;;;;;;;;;;;;;;;1.40;100.00;103126.81;5116527;28;19920;-71
2024/01/28 02:10:05;;;;;;;;;;;;;;;1.36;100.00;103133.56;5115404;28;19928;-71
2024/01/28 02:12:31;;;;;;;;;;;;;;;1.35;100.00;103121.50;5115967;28;20223;-71
2024/01/28 02:15:06;;;;;;;;;;;;;;;1.30;100.00;103126.50;5116075;28;19922;-71
2024/01/28 02:17:32;;;;;;;;;;;;;;;1.29;100.00;103127.34;5110899;28;19920;-71
2024/01/28 02:19:57;;;;;;;;;;;;;;;1.27;100.00;103130.69;5115808;28;20002;-71
2024/01/28 02:22:23;;;;;;;;;;;;;;;1.26;100.00;103137.56;5112095;28;19916;-71
2024/01/28 02:24:49;;;;;;;;;;;;;;;1.28;100.00;103140.19;5115883;28;20264;-71
2024/01/28 02:27:15;;;;;;;;;;;;;;;1.29;100.00;103129.03;5115514;28;19920;-71
2024/01/28 02:29:40;;;;;;;;;;;;;;;1.29;100.00;103127.34;5115850;28;20131;-71
2024/01/28 02:32:05;;;;;;;;;;;;;;;1.29;100.00;103132.50;5115872;28;20126;-71
2024/01/28 02:34:30;;;;;;;;;;;;;;;1.29;100.00;103122.19;5116831;28;20202;-71
2024/01/28 02:36:56;;;;;;;;;;;;;;;1.30;100.00;103128.22;5115098;28;20273;-71
2024/01/28 02:39:21;;;;;;;;;;;;;;;1.27;100.00;103121.22;5104814;28;20127;-71
2024/01/28 02:41:46;;;;;;;;;;;;;;;1.29;100.00;103123.88;5116123;28;20100;-71
2024/01/28 02:44:11;;;;;;;;;;;;;;;1.32;100.00;103118.81;5114873;28;19922;-71
2024/01/28 02:46:36;;;;;;;;;;;;;;;1.30;100.00;103113.59;5115679;28;19966;-71
2024/01/28 02:49:02;;;;;;;;;;;;;;;1.34;100.00;103102.53;5115252;28;19919;-71
2024/01/28 02:51:27;;;;;;;;;;;;;;;1.38;100.00;103108.69;5115384;28;19930;-71
2024/01/28 02:53:52;;;;;;;;;;;;;;;1.39;100.00;103105.28;5115349;28;20195;-71
2024/01/28 02:56:17;;;;;;;;;;;;;;;1.39;100.00;103110.44;5115818;28;19965;-71
2024/01/28 02:58:43;;;;;;;;;;;;;;;1.40;100.00;103114.81;5115396;28;19915;-71
2024/01/28 03:01:08;;;;;;;;;;;;;;;1.42;100.00;103100.25;5115121;28;20226;-71
2024/01/28 03:03:33;;;;;;;;;;;;;;;1.45;100.00;103094.28;5115123;28;20123;-71
2024/01/28 03:05:58;;;;;;;;;;;;;;;1.49;100.00;103090.97;5114855;28;20122;-71
2024/01/28 03:08:24;;;;;;;;;;;;;;;1.52;100.00;103085.91;5115732;28;19919;-71
2024/01/28 03:10:49;;;;;;;;;;;;;;;1.55;100.00;103080.84;5114655;28;19923;-71
2024/01/28 03:13:15;;;;;;;;;;;;;;;1.56;100.00;103080.00;5115258;28;20131;-71
2024/01/28 03:15:40;;;;;;;;;;;;;;;1.57;100.00;103071.44;5115589;28;20115;-71
2024/01/28 03:18:06;;;;;;;;;;;;;;;1.55;100.00;103070.53;5109776;28;19920;-71
2024/01/28 03:20:31;;;;;;;;;;;;;;;1.50;100.00;103067.78;5115216;28;19920;-71
2024/01/28 03:22:56;;;;;;;;;;;;;;;1.50;100.00;103067.78;5114491;28;19916;-71
2024/01/28 03:25:21;;;;;;;;;;;;;;;1.47;100.00;103065.09;5101815;28;19945;-71
2024/01/28 03:27:47;;;;;;;;;;;;;;;1.45;100.00;103068.47;5121939;28;19920;-71
2024/01/28 03:30:12;;;;;;;;;;;;;;;1.44;100.00;103071.88;5120709;28;19977;-71
2024/01/28 03:32:37;;;;;;;;;;;;;;;1.42;100.00;103068.34;5119903;28;19924;-71
2024/01/28 03:35:03;;;;;;;;;;;;;;;1.41;100.00;103067.47;5121721;28;20194;-71
2024/01/28 03:37:28;;;;;;;;;;;;;;;1.42;100.00;103069.25;5103256;28;19928;-71
2024/01/28 03:39:53;;;;;;;;;;;;;;;1.45;100.00;103071.03;5120948;28;19919;-71
2024/01/28 03:42:19;;;;;;;;;;;;;;;1.45;100.00;103069.34;5121734;28;19919;-71
2024/01/28 03:44:44;;;;;;;;;;;;;;;1.43;100.00;103060.66;5121924;28;19971;-71
2024/01/28 03:47:09;;;;;;;;;;;;;;;1.43;100.00;103068.41;5120713;28;19924;-71
2024/01/28 03:49:34;;;;;;;;;;;;;;;1.42;100.00;103058.03;5120693;28;20147;-71
2024/01/28 03:52:00;;;;;;;;;;;;;;;1.47;100.00;103057.34;5121123;28;19924;-71
2024/01/28 03:54:25;;;;;;;;;;;;;;;1.47;100.00;103051.31;5121248;28;19991;-71
2024/01/28 03:56:51;;;;;;;;;;;;;;;1.47;100.00;103051.31;5112533;28;19919;-71
2024/01/28 03:59:16;;;;;;;;;;;;;;;1.41;100.00;103048.53;5121369;28;20302;-71
2024/01/28 04:01:41;;;;;;;;;;;;;;;1.30;100.00;103046.47;5121032;28;19946;-71
2024/01/28 04:04:07;;;;;;;;;;;;;;;1.26;100.00;103051.50;5120201;28;19920;-71
2024/01/28 04:06:33;;;;;;;;;;;;;;;1.24;100.00;103054.03;5119718;28;19931;-71
2024/01/28 04:08:58;;;;;;;;;;;;;;;1.26;100.00;103057.53;5120839;28;19924;-71
2024/01/28 04:11:25;;;;;;;;;;;;;;;1.28;100.00;103060.16;5102390;28;19934;-71
2024/01/28 04:13:50;;;;;;;;;;;;;;;1.28;100.00;103053.28;5120024;28;19919;-70
2024/01/28 04:16:15;;;;;;;;;;;;;;;1.23;100.00;103054.84;5120419;28;19945;-70
2024/01/28 04:18:41;;;;;;;;;;;;;;;1.26;100.00;103051.50;5120788;28;20131;-70
2024/01/28 04:21:06;;;;;;;;;;;;;;;1.28;100.00;103045.53;5120076;28;19920;-70
2024/01/28 04:23:31;;;;;;;;;;;;;;;1.31;100.00;103043.06;5121379;28;19919;-71
2024/01/28 04:25:56;;;;;;;;;;;;;;;1.31;100.00;103027.59;5120021;28;19920;-71
2024/01/28 04:28:23;;;;;;;;;;;;;;;1.31;100.00;103027.59;5120903;28;20265;-71
2024/01/28 04:30:49;;;;;;;;;;;;;;;1.32;100.00;103026.75;5120693;28;19923;-71
2024/01/28 04:33:14;;;;;;;;;;;;;;;1.30;100.00;103028.41;5120391;28;20310;-71
2024/01/28 04:35:39;;;;;;;;;;;;;;;1.29;100.00;103036.09;5120421;28;19930;-71
2024/01/28 04:38:05;;;;;;;;;;;;;;;1.31;100.00;103025.00;5119715;28;19919;-71
2024/01/28 04:40:30;;;;;;;;;;;;;;;1.29;100.00;103023.19;5122773;28;19919;-71
2024/01/28 04:42:55;;;;;;;;;;;;;;;1.28;100.00;103017.16;5120284;28;20284;-71
2024/01/28 04:45:20;;;;;;;;;;;;;;;1.29;100.00;103005.13;5119857;28;19927;-71
2024/01/28 04:47:46;;;;;;;;;;;;;;;1.28;100.00;103009.41;5120522;28;19919;-71
2024/01/28 04:50:12;;;;;;;;;;;;;;;1.26;100.00;103005.91;5120982;28;19931;-71
2024/01/28 04:52:37;;;;;;;;;;;;;;;1.23;100.00;102995.47;5102666;28;19911;-70
2024/01/28 04:55:04;;;;;;;;;;;;;;;1.23;100.00;102994.59;5117569;28;20192;-70
2024/01/28 04:57:30;;;;;;;;;;;;;;;1.20;100.00;102987.66;5115098;28;19994;-70
2024/01/28 04:59:55;;;;;;;;;;;;;;;1.17;100.00;102986.66;5120662;28;19919;-70
2024/01/28 05:02:20;;;;;;;;;;;;;;;1.19;100.00;102987.59;5120739;28;20241;-70
2024/01/28 05:04:46;;;;;;;;;;;;;;;1.19;100.00;102985.88;5120697;28;20221;-70
2024/01/28 05:07:12;;;;;;;;;;;;;;;1.21;100.00;102980.78;5116640;28;20085;-71
2024/01/28 05:09:37;;;;;;;;;;;;;;;1.18;100.00;102976.38;5116268;28;19916;-71
2024/01/28 05:12:03;;;;;;;;;;;;;;;1.18;100.00;102986.69;5120263;28;19962;-71
2024/01/28 05:14:28;;;;;;;;;;;;;;;1.17;100.00;102984.94;5121040;28;20241;-70
2024/01/28 05:16:53;;;;;;;;;;;;;;;1.11;100.00;102977.00;5102907;28;20167;-70
2024/01/28 05:19:18;;;;;;;;;;;;;;;1.09;100.00;102974.38;5124427;28;19916;-70
2024/01/28 05:21:44;;;;;;;;;;;;;;;1.07;100.00;102967.41;5123526;28;19931;-70
2024/01/28 05:24:09;;;;;;;;;;;;;;;1.00;100.00;102970.59;5122584;28;19920;-70
2024/01/28 05:26:35;;;;;;;;;;;;;;;0.99;100.00;102966.28;5123393;28;19927;-70
2024/01/28 05:29:05;;;;;;;;;;;;;;;1.00;100.00;102963.75;5123931;28;19923;-73
2024/01/28 05:31:30;;;;;;;;;;;;;;;1.00;100.00;102950.88;5121514;28;19953;-71
2024/01/28 05:33:55;;;;;;;;;;;;;;;1.02;100.00;102958.63;5122811;28;19928;-71
2024/01/28 05:36:21;;;;;;;;;;;;;;;1.00;100.00;102947.38;5122986;28;19957;-70
2024/01/28 05:38:46;;;;;;;;;;;;;;;1.03;100.00;102948.34;5122830;28;19919;-71
2024/01/28 05:41:11;;;;;;;;;;;;;;;1.03;100.00;102940.63;5122848;28;19922;-71
2024/01/28 05:43:37;;;;;;;;;;;;;;;1.06;100.00;102943.31;5121298;28;19919;-71
2024/01/28 05:46:03;;;;;;;;;;;;;;;1.08;100.00;102944.22;5121402;28;19919;-71
2024/01/28 05:48:28;;;;;;;;;;;;;;;1.05;100.00;102943.25;5122547;28;19942;-71
2024/01/28 05:50:54;;;;;;;;;;;;;;;1.07;100.00;102950.22;5122710;28;19912;-71
2024/01/28 05:53:19;;;;;;;;;;;;;;;1.10;100.00;102942.56;5122452;28;19918;-71
2024/01/28 05:55:44;;;;;;;;;;;;;;;1.10;100.00;102947.72;5123248;28;19920;-71
2024/01/28 05:58:10;;;;;;;;;;;;;;;1.08;100.00;102951.09;5123814;28;20214;-71
2024/01/28 06:00:35;;;;;;;;;;;;;;;1.07;100.00;102949.34;5123913;28;19951;-71
2024/01/28 06:03:00;;;;;;;;;;;;;;;1.04;100.00;102954.44;5123557;28;19919;-71
2024/01/28 06:05:26;;;;;;;;;;;;;;;0.98;100.00;102959.38;5124143;28;20246;-71
2024/01/28 06:07:51;;;;;;;;;;;;;;;0.97;100.00;102955.03;5121008;27;19920;-73
2024/01/28 06:10:16;;;;;;;;;;;;;;;0.95;100.00;102953.28;5121622;27;19924;-73
2024/01/28 06:12:41;;;;;;;;;;;;;;;0.93;100.00;102946.31;5107867;27;19961;-71
2024/01/28 06:15:08;;;;;;;;;;;;;;;0.93;100.00;102946.31;5141828;27;20033;-73
2024/01/28 06:17:36;;;;;;;;;;;;;;;0.92;100.00;102936.81;5133716;27;19966;-71
2024/01/28 06:20:01;;;;;;;;;;;;;;;0.92;100.00;102936.81;5127327;27;19923;-71
2024/01/28 06:22:26;;;;;;;;;;;;;;;0.92;100.00;102936.81;5126259;27;20234;-71
2024/01/28 06:24:52;;;;;;;;;;;;;;;0.93;100.00;102938.59;5122336;28;20250;-71
2024/01/28 06:27:17;;;;;;;;;;;;;;;0.96;100.00;102933.50;5131269;27;19919;-71
2024/01/28 06:29:44;;;;;;;;;;;;;;;0.93;100.00;102929.13;5123038;27;20274;-71
2024/01/28 06:32:10;;;;;;;;;;;;;;;0.95;100.00;102937.78;5122860;28;19920;-71
2024/01/28 06:34:35;;;;;;;;;;;;;;;0.91;100.00;102933.38;5122850;28;19919;-71
2024/01/28 06:37:00;;;;;;;;;;;;;;;0.88;100.00;102929.81;5122430;28;19915;-71
2024/01/28 06:39:25;;;;;;;;;;;;;;;0.88;100.00;102929.81;5123679;28;19955;-71
2024/01/28 06:41:51;;;;;;;;;;;;;;;0.89;100.00;102926.38;5122658;28;19979;-71
2024/01/28 06:44:16;;;;;;;;;;;;;;;0.89;100.00;102926.38;5122247;28;19926;-71
2024/01/28 06:46:41;;;;;;;;;;;;;;;0.88;100.00;102922.94;5123794;28;19916;-71
2024/01/28 06:49:06;;;;;;;;;;;;;;;0.89;100.00;102918.66;5122538;28;19924;-71
2024/01/28 06:51:32;;;;;;;;;;;;;;;0.90;100.00;102921.28;5123486;28;19908;-71
2024/01/28 06:53:57;;;;;;;;;;;;;;;0.94;100.00;102915.38;5122571;28;19924;-71
2024/01/28 06:56:23;;;;;;;;;;;;;;;0.95;100.00;102919.75;5122193;28;19979;-71
2024/01/28 06:58:48;;;;;;;;;;;;;;;0.93;100.00;102913.66;5122466;28;20173;-71
2024/01/28 07:01:14;;;;;;;;;;;;;;;0.90;100.00;102910.97;5121737;28;19923;-71
2024/01/28 07:03:39;;;;;;;;;;;;;;;0.89;100.00;102909.22;5121152;28;20238;-71
2024/01/28 07:06:04;;;;;;;;;;;;;;;0.86;100.00;102909.13;5122453;28;19931;-71
2024/01/28 07:08:30;;;;;;;;;;;;;;;0.81;100.00;102913.25;5121420;28;19919;-71
2024/01/28 07:10:56;;;;;;;;;;;;;;;0.77;100.00;102919.13;5122181;28;19994;-71
2024/01/28 07:13:22;;;;;;;;;;;;;;;0.73;100.00;102906.97;5122482;28;19970;-71
2024/01/28 07:15:48;;;;;;;;;;;;;;;0.72;100.00;102912.94;5123263;28;19908;-71
2024/01/28 07:18:13;;;;;;;;;;;;;;;0.71;100.00;102906.91;5122367;28;19919;-71
2024/01/28 07:20:38;;;;;;;;;;;;;;;0.70;100.00;102912.03;5122224;28;19922;-71
2024/01/28 07:23:06;;;;;;;;;;;;;;;0.68;100.00;102911.97;5122427;28;19924;-71
2024/01/28 07:25:31;;;;;;;;;;;;;;;0.68;100.00;102911.97;5122712;28;19947;-71
2024/01/28 07:27:56;;;;;;;;;;;;;;;0.65;100.00;102910.97;5122230;28;19927;-71
2024/01/28 07:30:22;;;;;;;;;;;;;;;0.66;100.00;102905.00;5121802;28;19981;-71
2024/01/28 07:32:47;;;;;;;;;;;;;;;0.69;100.00;102897.34;5120464;28;19984;-71
2024/01/28 07:35:13;;;;;;;;;;;;;;;0.67;100.00;102902.47;5121684;28;19916;-71
2024/01/28 07:37:38;;;;;;;;;;;;;;;0.65;100.00;102895.50;5122112;28;19920;-71
2024/01/28 07:40:04;;;;;;;;;;;;;;;0.66;100.00;102900.72;5122147;28;19916;-71
2024/01/28 07:42:29;;;;;;;;;;;;;;;0.68;100.00;102898.19;5121523;28;19915;-71
2024/01/28 07:44:54;;;;;;;;;;;;;;;0.71;100.00;102893.13;5122171;28;20207;-71
2024/01/28 07:47:19;;;;;;;;;;;;;;;0.75;100.00;102889.84;5103224;28;19923;-71
2024/01/28 07:49:44;;;;;;;;;;;;;;;0.77;100.00;102883.91;5121114;28;19923;-71
2024/01/28 07:52:10;;;;;;;;;;;;;;;0.81;100.00;102878.84;5121674;28;19926;-71
2024/01/28 07:54:36;;;;;;;;;;;;;;;0.81;100.00;102879.72;5121815;28;19958;-71
2024/01/28 07:57:02;;;;;;;;;;;;;;;0.83;100.00;102875.47;5122348;28;19923;-71
2024/01/28 07:59:27;;;;;;;;;;;;;;;0.85;100.00;102862.63;5121475;28;20097;-71
2024/01/28 08:01:53;;;;;;;;;;;;;;;0.88;100.00;102863.59;5122181;28;19995;-71
2024/01/28 08:04:18;;;;;;;;;;;;;;;0.91;100.00;102855.06;5106170;28;20165;-71
2024/01/28 08:06:43;;;;;;;;;;;;;;;0.91;100.00;102855.06;5136306;27;19907;-71
2024/01/28 08:09:08;;;;;;;;;;;;;;;0.94;100.00;102856.03;5133743;27;19982;-71
2024/01/28 08:11:34;;;;;;;;;;;;;;;0.97;100.00;102857.00;5127653;27;20084;-71
2024/01/28 08:13:59;;;;;;;;;;;;;;;0.98;100.00;102863.91;5119371;27;20206;-71
2024/01/28 08:16:24;;;;;;;;;;;;;;;1.01;100.00;102859.69;5121453;28;19923;-71
2024/01/28 08:18:49;;;;;;;;;;;;;;;1.04;100.00;102854.66;5121406;28;19926;-71
2024/01/28 08:21:15;;;;;;;;;;;;;;;1.09;100.00;102860.84;5121360;28;19943;-71
2024/01/28 08:23:40;;;;;;;;;;;;;;;1.12;100.00;102849.72;5121200;28;20010;-71
2024/01/28 08:26:05;;;;;;;;;;;;;;;1.14;100.00;102858.38;5120830;28;20151;-71
2024/01/28 08:28:31;;;;;;;;;;;;;;;1.15;100.00;102863.59;5121024;28;19920;-71
2024/01/28 08:30:56;;;;;;;;;;;;;;;1.18;100.00;102856.78;5121187;28;20213;-71
2024/01/28 08:33:21;;;;;;;;;;;;;;;1.17;100.00;102855.91;5121358;28;19923;-71
2024/01/28 08:35:46;;;;;;;;;;;;;;;1.22;100.00;102849.19;5121231;28;19918;-71
2024/01/28 08:38:11;;;;;;;;;;;;;;;1.25;100.00;102854.41;5121137;28;19915;-71
2024/01/28 08:40:38;;;;;;;;;;;;;;;1.26;100.00;102853.59;5120999;28;19927;-71
2024/01/28 08:43:05;;;;;;;;;;;;;;;1.24;100.00;102851.81;5121615;28;19915;-71
2024/01/28 08:45:30;;;;;;;;;;;;;;;1.24;100.00;102855.25;5121589;28;19912;-71
2024/01/28 08:47:55;;;;;;;;;;;;;;;1.26;100.00;102851.00;5106458;28;19980;-71
2024/01/28 08:50:21;;;;;;;;;;;;;;;1.32;100.00;102840.00;5120396;28;20211;-71
2024/01/28 08:52:46;;;;;;;;;;;;;;;1.37;100.00;102838.44;5121827;28;20011;-71
2024/01/28 08:55:12;;;;;;;;;;;;;;;1.41;100.00;102841.97;5123934;28;20833;-71
2024/01/28 08:57:37;;;;;;;;;;;;;;;1.45;100.00;102836.06;5123898;28;19919;-71
2024/01/28 09:00:05;;;;;;;;;;;;;;;1.47;100.00;102837.84;5123879;28;19919;-72
2024/01/28 09:02:35;;;;;;;;;;;;;;;1.50;100.00;102834.50;5123826;28;19968;-71
2024/01/28 09:05:00;;;;;;;;;;;;;;;1.54;100.00;102834.59;5122975;28;19920;-71
2024/01/28 09:07:26;;;;;;;;;;;;;;;1.61;100.00;102829.63;5123847;28;19962;-71
2024/01/28 09:09:51;;;;;;;;;;;;;;;1.66;100.00;102833.22;5122928;28;19923;-71
2024/01/28 09:12:16;;;;;;;;;;;;;;;1.70;100.00;102830.75;5122377;28;19949;-71
2024/01/28 09:14:41;;;;;;;;;;;;;;;1.74;100.00;102818.81;5113394;28;20034;-71
2024/01/28 09:17:07;;;;;;;;;;;;;;;1.77;100.00;102823.19;5123356;28;20112;-71
2024/01/28 09:19:32;;;;;;;;;;;;;;;1.81;100.00;102835.38;5104737;28;19927;-71
2024/01/28 09:21:58;;;;;;;;;;;;;;;1.85;100.00;102826.84;5122515;28;19927;-71
2024/01/28 09:24:23;;;;;;;;;;;;;;;1.86;100.00;102834.66;5111600;28;19927;-71
2024/01/28 09:26:48;;;;;;;;;;;;;;;1.90;100.00;102830.44;5114674;28;19919;-71
2024/01/28 09:29:14;;;;;;;;;;;;;;;1.98;100.00;102823.75;5114191;28;19924;-71
2024/01/28 09:31:43;;;;;;;;;;;;;;;2.04;100.00;102823.06;5103264;28;19916;-71
2024/01/28 09:34:08;;;;;;;;;;;;;;;2.06;100.00;102822.25;5113759;28;20351;-71
2024/01/28 09:36:33;;;;;;;;;;;;;;;2.11;100.00;102822.38;5114951;28;19983;-71
2024/01/28 09:38:58;;;;;;;;;;;;;;;2.14;100.00;102819.88;5113966;28;19927;-71
2024/01/28 09:41:31;;;;;;;;;;;;;;;2.17;100.00;102819.09;5104403;28;20158;-71
2024/01/28 09:43:56;;;;;;;;;;;;;;;2.20;100.00;102816.56;5117188;28;19935;-71
2024/01/28 09:46:21;;;;;;;;;;;;;;;2.26;100.00;102816.75;5111962;28;19920;-71
2024/01/28 09:48:47;;;;;;;;;;;;;;;2.28;100.00;102815.06;5118982;28;19949;-71
2024/01/28 09:51:13;;;;;;;;;;;;;;;2.33;100.00;102817.75;5096940;28;19919;-71
2024/01/28 09:53:39;;;;;;;;;;;;;;;2.34;100.00;102811.75;5108090;28;19919;-72
2024/01/28 09:56:05;;;;;;;;;;;;;;;2.38;100.00;102809.25;5111956;28;19920;-71
2024/01/28 09:58:30;;;;;;;;;;;;;;;2.43;100.00;102811.97;5092896;28;20108;-71
2024/01/28 10:00:55;;;;;;;;;;;;;;;2.48;100.00;102805.22;5108440;28;20110;-71
2024/01/28 10:03:21;;;;;;;;;;;;;;;2.51;100.00;102797.53;5117968;28;19915;-72
2024/01/28 10:05:46;;;;;;;;;;;;;;;2.52;100.00;102793.22;5091067;28;19916;-71
2024/01/28 10:08:13;;;;;;;;;;;;;;;2.58;100.00;102798.53;5107741;28;19941;-71
2024/01/28 10:10:41;;;;;;;;;;;;;;;2.64;100.00;102793.53;5119166;28;21031;-71
2024/01/28 10:13:06;;;;;;;;;;;;;;;2.69;100.00;102794.50;5120901;28;19927;-71
2024/01/28 10:15:31;;;;;;;;;;;;;;;2.70;100.00;102791.06;5120917;28;19946;-71
2024/01/28 10:17:56;;;;;;;;;;;;;;;2.74;100.00;102792.03;5121089;28;19919;-71
2024/01/28 10:20:23;;;;;;;;;;;;;;;2.76;100.00;102798.97;5121157;28;20003;-71
2024/01/28 10:22:48;;;;;;;;;;;;;;;2.82;100.00;102796.53;5106835;28;19941;-72
2024/01/28 10:25:15;;;;;;;;;;;;;;;2.83;100.00;102800.84;5115484;28;19919;-72
2024/01/28 10:27:44;;;;;;;;;;;;;;;2.90;100.00;102795.84;5117006;28;19912;-71
2024/01/28 10:30:10;;;;;;;;;;;;;;;2.96;100.00;102793.38;5109214;28;19969;-71
2024/01/28 10:32:35;;;;;;;;;;;;;;;3.01;100.00;102796.94;5120796;28;19924;-71
2024/01/28 10:35:01;;;;;;;;;;;;;;;3.06;100.00;102790.16;5120790;28;19916;-71
2024/01/28 10:37:31;;;;;;;;;;;;;;;3.12;100.00;102795.47;5120867;28;20187;-71
2024/01/28 10:39:59;;;;;;;;;;;;;;;3.17;100.00;102788.66;5120744;28;19922;-71
2024/01/28 10:42:25;;;;;;;;;;;;;;;3.20;100.00;102796.50;5120847;28;19923;-71
2024/01/28 10:44:51;;;;;;;;;;;;;;;3.23;100.00;102790.50;5120225;28;20131;-72
2024/01/28 10:47:18;;;;;;;;;;;;;;;3.25;100.00;102779.31;5120280;28;19919;-72
2024/01/28 10:49:44;;;;;;;;;;;;;;;3.32;100.00;102774.28;5100343;28;19941;-72
2024/01/28 10:52:09;;;;;;;;;;;;;;;3.35;100.00;102776.97;5101461;28;20636;-71
2024/01/28 10:54:39;;;;;;;;;;;;;;;3.38;100.00;102770.09;5101249;28;19915;-71
2024/01/28 10:57:05;;;;;;;;;;;;;;;3.43;100.00;102771.06;5119135;28;19928;-71
2024/01/28 10:59:30;;;;;;;;;;;;;;;3.46;100.00;102770.28;5100456;28;19916;-71
2024/01/28 11:01:56;;;;;;;;;;;;;;;3.49;100.00;102759.09;5119506;28;19912;-71
2024/01/28 11:04:21;;;;;;;;;;;;;;;3.53;100.00;102751.41;5099470;28;20113;-71
2024/01/28 11:06:47;;;;;;;;;;;;;;;3.60;99.27;102752.38;5118374;28;20193;-71
2024/01/28 11:09:12;;;;;;;;;;;;;;;3.67;99.86;102749.06;5117260;28;19995;-71
2024/01/28 11:11:37;;;;;;;;;;;;;;;3.73;99.00;102745.72;5118481;28;19991;-71
2024/01/28 11:14:10;;;;;;;;;;;;;;;3.78;97.96;102734.59;5100156;28;19964;-71
2024/01/28 11:16:37;;;;;;;;;;;;;;;3.88;98.59;102732.19;5117800;28;19920;-71
2024/01/28 11:19:10;;;;;;;;;;;;;;;3.93;98.87;102725.31;5118905;28;20002;-71
2024/01/28 11:21:38;;;;;;;;;;;;;;;3.96;98.85;102720.19;5120934;28;19927;-71
2024/01/28 11:24:10;;;;;;;;;;;;;;;4.01;98.28;102711.66;5119345;28;19919;-71
2024/01/28 11:26:38;;;;;;;;;;;;;;;4.08;96.78;102715.22;5119083;28;19920;-71
2024/01/28 11:29:10;;;;;;;;;;;;;;;4.17;97.29;102706.72;5119087;28;20225;-71
2024/01/28 11:31:38;;;;;;;;;;;;;;;4.21;96.90;102705.91;5119402;28;20399;-71
2024/01/28 11:34:19;;;;;;;;;;;;;;;4.27;96.26;102695.63;5118932;28;19916;-71
2024/01/28 11:36:46;;;;;;;;;;;;;;;4.35;94.95;102693.19;5119728;28;19916;-71
2024/01/28 11:39:13;;;;;;;;;;;;;;;4.46;93.71;102694.19;5119004;28;19916;-71
2024/01/28 11:41:39;;;;;;;;;;;;;;;4.51;93.66;102694.25;5120136;28;19971;-71
2024/01/28 11:44:08;;;;;;;;;;;;;;;4.54;94.38;102692.56;5120285;28;19937;-71
2024/01/28 11:46:34;;;;;;;;;;;;;;;4.55;94.97;102683.94;5119950;28;19998;-71
2024/01/28 11:49:00;;;;;;;;;;;;;;;4.55;94.25;102673.56;5119306;28;19947;-71
2024/01/28 11:51:27;;;;;;;;;;;;;;;4.57;92.74;102669.25;5120292;28;19945;-71
2024/01/28 11:53:52;;;;;;;;;;;;;;;4.63;92.68;102670.22;5119265;28;19916;-71
2024/01/28 11:56:17;;;;;;;;;;;;;;;4.65;93.60;102671.09;5119425;28;19920;-71
2024/01/28 11:58:43;;;;;;;;;;;;;;;4.68;93.03;102661.63;5120122;28;19911;-71
2024/01/28 12:01:09;;;;;;;;;;;;;;;4.73;93.65;102656.47;5119374;28;20230;-71
2024/01/28 12:03:34;;;;;;;;;;;;;;;4.80;91.29;102656.59;5119658;28;19916;-71
2024/01/28 12:06:00;;;;;;;;;;;;;;;4.85;92.62;102646.25;5119737;28;20140;-71
2024/01/28 12:08:26;;;;;;;;;;;;;;;4.88;91.89;102640.25;5119809;28;20242;-71
2024/01/28 12:11:02;;;;;;;;;;;;;;;4.91;92.40;102635.06;5119074;28;20092;-71
2024/01/28 12:13:27;;;;;;;;;;;;;;;4.91;92.65;102635.97;5119892;28;20036;-71
2024/01/28 12:15:55;;;;;;;;;;;;;;;4.97;92.50;102630.81;5118885;28;19931;-71
2024/01/28 12:18:21;;;;;;;;;;;;;;;5.06;91.11;102626.56;5120015;28;20255;-71
2024/01/28 12:20:49;;;;;;;;;;;;;;;5.14;89.13;102630.13;5119102;28;19920;-71
2024/01/28 12:23:17;;;;;;;;;;;;;;;5.18;90.30;102627.59;5118608;28;19982;-71
2024/01/28 12:25:42;;;;;;;;;;;;;;;5.21;88.47;102625.88;5119434;28;20152;-71
2024/01/28 12:28:08;;;;;;;;;;;;;;;5.26;88.72;102613.81;5118724;28;20244;-71
2024/01/28 12:30:33;;;;;;;;;;;;;;;5.27;89.19;102611.22;5119371;28;19923;-72